sensor_id;sensor_type;location;lat;lon;timestamp;P1;durP1;ratioP1;P2;durP2;ratioP2
59024;SDS011;44806;48.008;13.666;2023-08-17T00:02:16;12.65;;;6.15;;
59024;SDS011;44806;48.008;13.666;2023-08-17T00:04:43;10.57;;;5.50;;
59024;SDS011;44806;48.008;13.666;2023-08-17T00:07:10;11.20;;;5.82;;
59024;SDS011;44806;48.008;13.666;2023-08-17T00:09:38;9.98;;;5.90;;
59024;SDS011;44806;48.008;13.666;2023-08-17T00:12:05;13.43;;;6.15;;
59024;SDS011;44806;48.008;13.666;2023-08-17T00:14:34;11.23;;;6.75;;
59024;SDS011;44806;48.008;13.666;2023-08-17T00:17:01;8.75;;;5.60;;
59024;SDS011;44806;48.008;13.666;2023-08-17T00:19:28;11.27;;;5.85;;
59024;SDS011;44806;48.008;13.666;2023-08-17T00:21:55;8.52;;;5.40;;
59024;SDS011;44806;48.008;13.666;2023-08-17T00:24:22;7.90;;;5.32;;
59024;SDS011;44806;48.008;13.666;2023-08-17T00:26:48;10.52;;;5.43;;
59024;SDS011;44806;48.008;13.666;2023-08-17T00:29:16;8.32;;;5.47;;
59024;SDS011;44806;48.008;13.666;2023-08-17T00:31:44;8.63;;;5.18;;
59024;SDS011;44806;48.008;13.666;2023-08-17T00:34:11;8.55;;;5.60;;
59024;SDS011;44806;48.008;13.666;2023-08-17T00:36:38;8.77;;;5.53;;
59024;SDS011;44806;48.008;13.666;2023-08-17T00:39:05;9.40;;;6.47;;
59024;SDS011;44806;48.008;13.666;2023-08-17T00:41:32;9.35;;;6.10;;
59024;SDS011;44806;48.008;13.666;2023-08-17T00:43:59;11.48;;;5.85;;
59024;SDS011;44806;48.008;13.666;2023-08-17T00:46:26;9.70;;;6.22;;
59024;SDS011;44806;48.008;13.666;2023-08-17T00:48:55;11.32;;;6.63;;
59024;SDS011;44806;48.008;13.666;2023-08-17T00:51:23;10.18;;;6.47;;
59024;SDS011;44806;48.008;13.666;2023-08-17T00:53:50;8.48;;;5.43;;
59024;SDS011;44806;48.008;13.666;2023-08-17T00:56:18;9.35;;;5.93;;
59024;SDS011;44806;48.008;13.666;2023-08-17T00:58:45;10.00;;;6.47;;
59024;SDS011;44806;48.008;13.666;2023-08-17T01:01:13;10.82;;;5.57;;
59024;SDS011;44806;48.008;13.666;2023-08-17T01:03:40;9.23;;;5.07;;
59024;SDS011;44806;48.008;13.666;2023-08-17T01:06:08;9.02;;;6.25;;
59024;SDS011;44806;48.008;13.666;2023-08-17T01:08:35;9.75;;;6.22;;
59024;SDS011;44806;48.008;13.666;2023-08-17T01:11:05;9.75;;;5.88;;
59024;SDS011;44806;48.008;13.666;2023-08-17T01:13:42;9.65;;;5.38;;
59024;SDS011;44806;48.008;13.666;2023-08-17T01:16:15;11.95;;;6.18;;
59024;SDS011;44806;48.008;13.666;2023-08-17T01:18:50;9.60;;;6.03;;
59024;SDS011;44806;48.008;13.666;2023-08-17T01:21:21;10.90;;;7.45;;
59024;SDS011;44806;48.008;13.666;2023-08-17T01:23:51;12.15;;;7.57;;
59024;SDS011;44806;48.008;13.666;2023-08-17T01:26:18;10.65;;;6.95;;
59024;SDS011;44806;48.008;13.666;2023-08-17T01:28:46;12.27;;;7.78;;
59024;SDS011;44806;48.008;13.666;2023-08-17T01:31:14;10.40;;;7.10;;
59024;SDS011;44806;48.008;13.666;2023-08-17T01:33:48;11.05;;;7.20;;
59024;SDS011;44806;48.008;13.666;2023-08-17T01:36:19;11.10;;;6.93;;
59024;SDS011;44806;48.008;13.666;2023-08-17T01:38:52;10.15;;;6.28;;
59024;SDS011;44806;48.008;13.666;2023-08-17T01:41:22;10.35;;;6.55;;
59024;SDS011;44806;48.008;13.666;2023-08-17T01:43:51;10.88;;;6.25;;
59024;SDS011;44806;48.008;13.666;2023-08-17T01:46:20;10.18;;;6.15;;
59024;SDS011;44806;48.008;13.666;2023-08-17T01:48:47;10.43;;;6.00;;
59024;SDS011;44806;48.008;13.666;2023-08-17T01:51:16;11.77;;;6.50;;
59024;SDS011;44806;48.008;13.666;2023-08-17T01:53:45;8.57;;;5.97;;
59024;SDS011;44806;48.008;13.666;2023-08-17T01:56:13;13.07;;;6.57;;
59024;SDS011;44806;48.008;13.666;2023-08-17T01:58:40;8.50;;;5.20;;
59024;SDS011;44806;48.008;13.666;2023-08-17T02:01:07;9.55;;;5.93;;
59024;SDS011;44806;48.008;13.666;2023-08-17T02:03:34;9.75;;;5.95;;
59024;SDS011;44806;48.008;13.666;2023-08-17T02:06:01;9.30;;;6.05;;
59024;SDS011;44806;48.008;13.666;2023-08-17T02:08:29;12.88;;;5.95;;
59024;SDS011;44806;48.008;13.666;2023-08-17T02:10:56;10.00;;;5.35;;
59024;SDS011;44806;48.008;13.666;2023-08-17T02:13:24;10.02;;;5.72;;
59024;SDS011;44806;48.008;13.666;2023-08-17T02:15:52;9.75;;;5.45;;
59024;SDS011;44806;48.008;13.666;2023-08-17T02:18:19;11.35;;;7.10;;
59024;SDS011;44806;48.008;13.666;2023-08-17T02:20:46;11.30;;;6.95;;
59024;SDS011;44806;48.008;13.666;2023-08-17T02:23:13;11.38;;;5.88;;
59024;SDS011;44806;48.008;13.666;2023-08-17T02:25:40;10.45;;;6.90;;
59024;SDS011;44806;48.008;13.666;2023-08-17T02:28:07;10.30;;;6.35;;
59024;SDS011;44806;48.008;13.666;2023-08-17T02:30:35;13.10;;;6.70;;
59024;SDS011;44806;48.008;13.666;2023-08-17T02:33:02;9.57;;;5.88;;
59024;SDS011;44806;48.008;13.666;2023-08-17T02:35:30;11.00;;;6.10;;
59024;SDS011;44806;48.008;13.666;2023-08-17T02:37:56;9.70;;;5.68;;
59024;SDS011;44806;48.008;13.666;2023-08-17T02:40:23;8.38;;;5.18;;
59024;SDS011;44806;48.008;13.666;2023-08-17T02:42:50;10.50;;;6.43;;
59024;SDS011;44806;48.008;13.666;2023-08-17T02:45:17;9.60;;;6.15;;
59024;SDS011;44806;48.008;13.666;2023-08-17T02:47:45;13.02;;;6.90;;
59024;SDS011;44806;48.008;13.666;2023-08-17T02:50:12;11.23;;;6.93;;
59024;SDS011;44806;48.008;13.666;2023-08-17T02:52:39;12.50;;;6.90;;
59024;SDS011;44806;48.008;13.666;2023-08-17T02:55:06;11.30;;;6.90;;
59024;SDS011;44806;48.008;13.666;2023-08-17T02:57:33;11.07;;;6.85;;
59024;SDS011;44806;48.008;13.666;2023-08-17T03:00:00;10.15;;;6.80;;
59024;SDS011;44806;48.008;13.666;2023-08-17T03:02:27;10.85;;;7.07;;
59024;SDS011;44806;48.008;13.666;2023-08-17T03:04:56;10.82;;;7.53;;
59024;SDS011;44806;48.008;13.666;2023-08-17T03:07:22;11.90;;;7.40;;
59024;SDS011;44806;48.008;13.666;2023-08-17T03:09:49;13.73;;;7.45;;
59024;SDS011;44806;48.008;13.666;2023-08-17T03:12:16;9.50;;;6.35;;
59024;SDS011;44806;48.008;13.666;2023-08-17T03:14:43;9.85;;;6.47;;
59024;SDS011;44806;48.008;13.666;2023-08-17T03:17:10;12.68;;;6.93;;
59024;SDS011;44806;48.008;13.666;2023-08-17T03:19:37;10.48;;;6.63;;
59024;SDS011;44806;48.008;13.666;2023-08-17T03:22:05;10.55;;;6.10;;
59024;SDS011;44806;48.008;13.666;2023-08-17T03:24:32;10.75;;;6.45;;
59024;SDS011;44806;48.008;13.666;2023-08-17T03:26:59;12.27;;;6.47;;
59024;SDS011;44806;48.008;13.666;2023-08-17T03:29:26;11.27;;;6.70;;
59024;SDS011;44806;48.008;13.666;2023-08-17T03:31:53;13.57;;;8.02;;
59024;SDS011;44806;48.008;13.666;2023-08-17T03:34:20;11.55;;;7.95;;
59024;SDS011;44806;48.008;13.666;2023-08-17T03:36:47;13.45;;;8.60;;
59024;SDS011;44806;48.008;13.666;2023-08-17T03:39:15;12.63;;;7.57;;
59024;SDS011;44806;48.008;13.666;2023-08-17T03:41:42;12.00;;;6.82;;
59024;SDS011;44806;48.008;13.666;2023-08-17T03:44:09;10.05;;;5.55;;
59024;SDS011;44806;48.008;13.666;2023-08-17T03:46:35;10.02;;;6.35;;
59024;SDS011;44806;48.008;13.666;2023-08-17T03:49:03;12.20;;;7.28;;
59024;SDS011;44806;48.008;13.666;2023-08-17T03:51:30;11.20;;;6.70;;
59024;SDS011;44806;48.008;13.666;2023-08-17T03:53:56;10.75;;;7.18;;
59024;SDS011;44806;48.008;13.666;2023-08-17T03:56:25;13.70;;;7.75;;
59024;SDS011;44806;48.008;13.666;2023-08-17T03:58:52;11.45;;;7.43;;
59024;SDS011;44806;48.008;13.666;2023-08-17T04:01:19;11.32;;;7.50;;
59024;SDS011;44806;48.008;13.666;2023-08-17T04:03:46;12.48;;;7.40;;
59024;SDS011;44806;48.008;13.666;2023-08-17T04:06:13;14.32;;;7.35;;
59024;SDS011;44806;48.008;13.666;2023-08-17T04:08:40;10.80;;;6.60;;
59024;SDS011;44806;48.008;13.666;2023-08-17T04:11:07;11.02;;;6.55;;
59024;SDS011;44806;48.008;13.666;2023-08-17T04:13:36;11.32;;;7.85;;
59024;SDS011;44806;48.008;13.666;2023-08-17T04:16:03;13.32;;;7.47;;
59024;SDS011;44806;48.008;13.666;2023-08-17T04:18:30;10.07;;;6.95;;
59024;SDS011;44806;48.008;13.666;2023-08-17T04:20:57;10.88;;;6.72;;
59024;SDS011;44806;48.008;13.666;2023-08-17T04:23:24;12.30;;;7.45;;
59024;SDS011;44806;48.008;13.666;2023-08-17T04:25:51;12.75;;;6.95;;
59024;SDS011;44806;48.008;13.666;2023-08-17T04:28:19;10.32;;;6.30;;
59024;SDS011;44806;48.008;13.666;2023-08-17T04:30:48;12.20;;;6.32;;
59024;SDS011;44806;48.008;13.666;2023-08-17T04:33:15;14.15;;;7.05;;
59024;SDS011;44806;48.008;13.666;2023-08-17T04:35:42;10.48;;;7.35;;
59024;SDS011;44806;48.008;13.666;2023-08-17T04:38:12;11.82;;;7.47;;
59024;SDS011;44806;48.008;13.666;2023-08-17T04:40:39;11.30;;;7.25;;
59024;SDS011;44806;48.008;13.666;2023-08-17T04:43:06;11.45;;;7.30;;
59024;SDS011;44806;48.008;13.666;2023-08-17T04:45:33;10.45;;;6.95;;
59024;SDS011;44806;48.008;13.666;2023-08-17T04:48:01;20.25;;;8.32;;
59024;SDS011;44806;48.008;13.666;2023-08-17T04:50:29;11.07;;;6.78;;
59024;SDS011;44806;48.008;13.666;2023-08-17T04:52:56;15.27;;;6.82;;
59024;SDS011;44806;48.008;13.666;2023-08-17T04:55:22;13.82;;;7.57;;
59024;SDS011;44806;48.008;13.666;2023-08-17T04:57:49;14.68;;;8.63;;
59024;SDS011;44806;48.008;13.666;2023-08-17T05:00:16;11.75;;;7.07;;
59024;SDS011;44806;48.008;13.666;2023-08-17T05:02:45;12.65;;;8.20;;
59024;SDS011;44806;48.008;13.666;2023-08-17T05:05:13;12.25;;;7.25;;
59024;SDS011;44806;48.008;13.666;2023-08-17T05:07:40;12.13;;;7.68;;
59024;SDS011;44806;48.008;13.666;2023-08-17T05:10:07;14.45;;;7.82;;
59024;SDS011;44806;48.008;13.666;2023-08-17T05:12:34;14.55;;;8.27;;
59024;SDS011;44806;48.008;13.666;2023-08-17T05:15:01;12.30;;;7.22;;
59024;SDS011;44806;48.008;13.666;2023-08-17T05:17:28;14.25;;;7.32;;
59024;SDS011;44806;48.008;13.666;2023-08-17T05:19:55;13.98;;;7.53;;
59024;SDS011;44806;48.008;13.666;2023-08-17T05:22:24;15.93;;;7.93;;
59024;SDS011;44806;48.008;13.666;2023-08-17T05:24:51;10.82;;;7.10;;
59024;SDS011;44806;48.008;13.666;2023-08-17T05:27:18;10.82;;;7.30;;
59024;SDS011;44806;48.008;13.666;2023-08-17T05:29:45;12.70;;;8.02;;
59024;SDS011;44806;48.008;13.666;2023-08-17T05:32:11;12.18;;;7.80;;
59024;SDS011;44806;48.008;13.666;2023-08-17T05:34:38;11.80;;;8.13;;
59024;SDS011;44806;48.008;13.666;2023-08-17T05:37:05;12.65;;;8.43;;
59024;SDS011;44806;48.008;13.666;2023-08-17T05:39:34;13.00;;;7.93;;
59024;SDS011;44806;48.008;13.666;2023-08-17T05:42:01;12.55;;;8.32;;
59024;SDS011;44806;48.008;13.666;2023-08-17T05:44:28;12.45;;;7.57;;
59024;SDS011;44806;48.008;13.666;2023-08-17T05:46:55;14.38;;;9.23;;
59024;SDS011;44806;48.008;13.666;2023-08-17T05:49:21;14.38;;;7.78;;
59024;SDS011;44806;48.008;13.666;2023-08-17T05:51:48;12.82;;;8.25;;
59024;SDS011;44806;48.008;13.666;2023-08-17T05:54:15;13.55;;;7.97;;
59024;SDS011;44806;48.008;13.666;2023-08-17T05:56:44;11.73;;;7.40;;
59024;SDS011;44806;48.008;13.666;2023-08-17T05:59:12;11.50;;;7.38;;
59024;SDS011;44806;48.008;13.666;2023-08-17T06:01:39;9.18;;;6.32;;
59024;SDS011;44806;48.008;13.666;2023-08-17T06:04:06;12.55;;;7.75;;
59024;SDS011;44806;48.008;13.666;2023-08-17T06:06:33;12.27;;;7.70;;
59024;SDS011;44806;48.008;13.666;2023-08-17T06:09:00;11.93;;;7.93;;
59024;SDS011;44806;48.008;13.666;2023-08-17T06:11:27;13.38;;;7.60;;
59024;SDS011;44806;48.008;13.666;2023-08-17T06:13:55;13.73;;;7.18;;
59024;SDS011;44806;48.008;13.666;2023-08-17T06:16:22;10.57;;;6.15;;
59024;SDS011;44806;48.008;13.666;2023-08-17T06:18:49;12.68;;;7.25;;
59024;SDS011;44806;48.008;13.666;2023-08-17T06:21:16;11.18;;;7.63;;
59024;SDS011;44806;48.008;13.666;2023-08-17T06:23:43;13.48;;;7.53;;
59024;SDS011;44806;48.008;13.666;2023-08-17T06:26:10;12.02;;;7.28;;
59024;SDS011;44806;48.008;13.666;2023-08-17T06:28:37;11.48;;;7.85;;
59024;SDS011;44806;48.008;13.666;2023-08-17T06:31:05;11.25;;;5.85;;
59024;SDS011;44806;48.008;13.666;2023-08-17T06:33:32;16.95;;;8.80;;
59024;SDS011;44806;48.008;13.666;2023-08-17T06:35:59;11.55;;;6.60;;
59024;SDS011;44806;48.008;13.666;2023-08-17T06:38:26;11.63;;;7.55;;
59024;SDS011;44806;48.008;13.666;2023-08-17T06:40:52;11.15;;;6.93;;
59024;SDS011;44806;48.008;13.666;2023-08-17T06:43:19;15.50;;;8.73;;
59024;SDS011;44806;48.008;13.666;2023-08-17T06:45:46;11.07;;;7.80;;
59024;SDS011;44806;48.008;13.666;2023-08-17T06:48:15;13.93;;;7.82;;
59024;SDS011;44806;48.008;13.666;2023-08-17T06:50:41;11.38;;;7.95;;
59024;SDS011;44806;48.008;13.666;2023-08-17T06:53:08;13.05;;;9.07;;
59024;SDS011;44806;48.008;13.666;2023-08-17T06:55:35;15.10;;;8.35;;
59024;SDS011;44806;48.008;13.666;2023-08-17T06:58:02;13.43;;;9.13;;
59024;SDS011;44806;48.008;13.666;2023-08-17T07:00:29;13.43;;;8.05;;
59024;SDS011;44806;48.008;13.666;2023-08-17T07:02:56;11.57;;;7.47;;
59024;SDS011;44806;48.008;13.666;2023-08-17T07:05:25;13.82;;;8.48;;
59024;SDS011;44806;48.008;13.666;2023-08-17T07:07:52;12.43;;;8.65;;
59024;SDS011;44806;48.008;13.666;2023-08-17T07:10:20;10.38;;;6.63;;
59024;SDS011;44806;48.008;13.666;2023-08-17T07:12:47;10.98;;;7.63;;
59024;SDS011;44806;48.008;13.666;2023-08-17T07:15:14;11.10;;;7.40;;
59024;SDS011;44806;48.008;13.666;2023-08-17T07:17:41;12.68;;;7.20;;
59024;SDS011;44806;48.008;13.666;2023-08-17T07:20:08;11.25;;;6.97;;
59024;SDS011;44806;48.008;13.666;2023-08-17T07:22:38;8.95;;;6.32;;
59024;SDS011;44806;48.008;13.666;2023-08-17T07:25:05;8.38;;;5.85;;
59024;SDS011;44806;48.008;13.666;2023-08-17T07:27:34;11.05;;;6.78;;
59024;SDS011;44806;48.008;13.666;2023-08-17T07:30:01;9.77;;;6.80;;
59024;SDS011;44806;48.008;13.666;2023-08-17T07:32:28;9.60;;;5.90;;
59024;SDS011;44806;48.008;13.666;2023-08-17T07:34:55;10.82;;;7.03;;
59024;SDS011;44806;48.008;13.666;2023-08-17T07:37:22;8.63;;;6.47;;
59024;SDS011;44806;48.008;13.666;2023-08-17T07:39:50;13.60;;;7.90;;
59024;SDS011;44806;48.008;13.666;2023-08-17T07:42:17;17.92;;;8.85;;
59024;SDS011;44806;48.008;13.666;2023-08-17T07:44:44;11.07;;;7.38;;
59024;SDS011;44806;48.008;13.666;2023-08-17T07:47:11;11.63;;;7.25;;
59024;SDS011;44806;48.008;13.666;2023-08-17T07:49:38;10.23;;;7.05;;
59024;SDS011;44806;48.008;13.666;2023-08-17T07:52:05;9.38;;;7.00;;
59024;SDS011;44806;48.008;13.666;2023-08-17T07:54:31;9.57;;;6.93;;
59024;SDS011;44806;48.008;13.666;2023-08-17T07:57:00;9.13;;;6.70;;
59024;SDS011;44806;48.008;13.666;2023-08-17T07:59:28;9.93;;;6.45;;
59024;SDS011;44806;48.008;13.666;2023-08-17T08:01:55;10.20;;;7.07;;
59024;SDS011;44806;48.008;13.666;2023-08-17T08:04:22;9.75;;;6.40;;
59024;SDS011;44806;48.008;13.666;2023-08-17T08:06:49;8.77;;;6.10;;
59024;SDS011;44806;48.008;13.666;2023-08-17T08:09:16;9.65;;;7.20;;
59024;SDS011;44806;48.008;13.666;2023-08-17T08:11:42;10.43;;;6.85;;
59024;SDS011;44806;48.008;13.666;2023-08-17T08:14:11;10.98;;;7.28;;
59024;SDS011;44806;48.008;13.666;2023-08-17T08:16:37;9.77;;;7.03;;
59024;SDS011;44806;48.008;13.666;2023-08-17T08:19:04;9.93;;;6.13;;
59024;SDS011;44806;48.008;13.666;2023-08-17T08:21:31;9.30;;;5.78;;
59024;SDS011;44806;48.008;13.666;2023-08-17T08:23:58;10.80;;;6.10;;
59024;SDS011;44806;48.008;13.666;2023-08-17T08:26:25;9.63;;;5.47;;
59024;SDS011;44806;48.008;13.666;2023-08-17T08:28:52;9.80;;;5.32;;
59024;SDS011;44806;48.008;13.666;2023-08-17T08:31:21;8.82;;;5.82;;
59024;SDS011;44806;48.008;13.666;2023-08-17T08:33:48;10.77;;;5.82;;
59024;SDS011;44806;48.008;13.666;2023-08-17T08:36:15;8.98;;;5.05;;
59024;SDS011;44806;48.008;13.666;2023-08-17T08:38:42;9.43;;;4.93;;
59024;SDS011;44806;48.008;13.666;2023-08-17T08:41:11;7.68;;;6.28;;
59024;SDS011;44806;48.008;13.666;2023-08-17T08:43:38;7.70;;;5.05;;
59024;SDS011;44806;48.008;13.666;2023-08-17T08:46:05;8.25;;;5.63;;
59024;SDS011;44806;48.008;13.666;2023-08-17T08:48:33;11.18;;;5.75;;
59024;SDS011;44806;48.008;13.666;2023-08-17T08:51:01;9.40;;;6.35;;
59024;SDS011;44806;48.008;13.666;2023-08-17T08:53:32;8.48;;;5.78;;
59024;SDS011;44806;48.008;13.666;2023-08-17T08:56:03;7.75;;;5.57;;
59024;SDS011;44806;48.008;13.666;2023-08-17T08:58:33;10.85;;;5.30;;
59024;SDS011;44806;48.008;13.666;2023-08-17T09:01:01;9.48;;;5.55;;
59024;SDS011;44806;48.008;13.666;2023-08-17T09:03:29;8.40;;;6.35;;
59024;SDS011;44806;48.008;13.666;2023-08-17T09:06:00;7.82;;;4.90;;
59024;SDS011;44806;48.008;13.666;2023-08-17T09:08:29;9.82;;;6.40;;
59024;SDS011;44806;48.008;13.666;2023-08-17T09:10:56;8.30;;;5.32;;
59024;SDS011;44806;48.008;13.666;2023-08-17T09:13:24;9.45;;;5.72;;
59024;SDS011;44806;48.008;13.666;2023-08-17T09:15:51;10.80;;;5.50;;
59024;SDS011;44806;48.008;13.666;2023-08-17T09:18:18;8.88;;;6.13;;
59024;SDS011;44806;48.008;13.666;2023-08-17T09:20:46;8.50;;;6.20;;
59024;SDS011;44806;48.008;13.666;2023-08-17T09:23:15;7.82;;;4.50;;
59024;SDS011;44806;48.008;13.666;2023-08-17T09:25:45;10.18;;;5.38;;
59024;SDS011;44806;48.008;13.666;2023-08-17T09:28:13;8.88;;;6.47;;
59024;SDS011;44806;48.008;13.666;2023-08-17T09:30:51;9.18;;;5.18;;
59024;SDS011;44806;48.008;13.666;2023-08-17T09:33:19;7.88;;;5.47;;
59024;SDS011;44806;48.008;13.666;2023-08-17T09:35:47;7.47;;;5.68;;
59024;SDS011;44806;48.008;13.666;2023-08-17T09:38:16;7.57;;;6.15;;
59024;SDS011;44806;48.008;13.666;2023-08-17T09:40:43;9.50;;;5.53;;
59024;SDS011;44806;48.008;13.666;2023-08-17T09:43:10;7.80;;;5.50;;
59024;SDS011;44806;48.008;13.666;2023-08-17T09:45:38;9.73;;;5.88;;
59024;SDS011;44806;48.008;13.666;2023-08-17T09:48:06;6.75;;;5.75;;
59024;SDS011;44806;48.008;13.666;2023-08-17T09:50:34;8.07;;;5.50;;
59024;SDS011;44806;48.008;13.666;2023-08-17T09:53:01;7.65;;;5.55;;
59024;SDS011;44806;48.008;13.666;2023-08-17T09:55:31;8.57;;;5.70;;
59024;SDS011;44806;48.008;13.666;2023-08-17T09:57:59;8.23;;;5.40;;
59024;SDS011;44806;48.008;13.666;2023-08-17T10:00:26;7.68;;;5.43;;
59024;SDS011;44806;48.008;13.666;2023-08-17T10:02:54;7.75;;;5.50;;
59024;SDS011;44806;48.008;13.666;2023-08-17T10:05:24;6.95;;;5.50;;
59024;SDS011;44806;48.008;13.666;2023-08-17T10:07:55;9.73;;;5.88;;
59024;SDS011;44806;48.008;13.666;2023-08-17T10:10:25;7.03;;;5.50;;
59024;SDS011;44806;48.008;13.666;2023-08-17T10:12:56;7.05;;;5.07;;
59024;SDS011;44806;48.008;13.666;2023-08-17T10:17:59;7.78;;;5.20;;
59024;SDS011;44806;48.008;13.666;2023-08-17T10:20:34;7.95;;;5.25;;
59024;SDS011;44806;48.008;13.666;2023-08-17T10:23:05;7.82;;;5.78;;
59024;SDS011;44806;48.008;13.666;2023-08-17T10:25:38;6.90;;;5.25;;
59024;SDS011;44806;48.008;13.666;2023-08-17T10:28:08;7.47;;;5.30;;
59024;SDS011;44806;48.008;13.666;2023-08-17T10:30:36;8.02;;;5.75;;
59024;SDS011;44806;48.008;13.666;2023-08-17T10:33:03;6.53;;;5.35;;
59024;SDS011;44806;48.008;13.666;2023-08-17T10:35:32;8.80;;;5.05;;
59024;SDS011;44806;48.008;13.666;2023-08-17T10:37:59;8.55;;;5.50;;
59024;SDS011;44806;48.008;13.666;2023-08-17T10:40:28;6.82;;;5.50;;
59024;SDS011;44806;48.008;13.666;2023-08-17T10:43:02;7.00;;;5.60;;
59024;SDS011;44806;48.008;13.666;2023-08-17T10:45:31;7.65;;;5.20;;
59024;SDS011;44806;48.008;13.666;2023-08-17T10:51:03;8.20;;;6.30;;
59024;SDS011;44806;48.008;13.666;2023-08-17T10:53:34;8.02;;;5.68;;
59024;SDS011;44806;48.008;13.666;2023-08-17T10:56:06;7.03;;;5.38;;
59024;SDS011;44806;48.008;13.666;2023-08-17T10:58:33;9.95;;;5.00;;
59024;SDS011;44806;48.008;13.666;2023-08-17T11:01:01;10.05;;;5.30;;
59024;SDS011;44806;48.008;13.666;2023-08-17T11:03:29;6.95;;;5.53;;
59024;SDS011;44806;48.008;13.666;2023-08-17T11:05:56;8.77;;;5.40;;
59024;SDS011;44806;48.008;13.666;2023-08-17T11:08:27;7.10;;;5.55;;
59024;SDS011;44806;48.008;13.666;2023-08-17T11:10:58;7.55;;;4.95;;
59024;SDS011;44806;48.008;13.666;2023-08-17T11:13:28;7.30;;;5.20;;
59024;SDS011;44806;48.008;13.666;2023-08-17T11:15:57;11.05;;;5.10;;
59024;SDS011;44806;48.008;13.666;2023-08-17T11:18:26;7.10;;;5.22;;
59024;SDS011;44806;48.008;13.666;2023-08-17T11:20:53;7.43;;;4.93;;
59024;SDS011;44806;48.008;13.666;2023-08-17T11:23:21;6.82;;;5.50;;
59024;SDS011;44806;48.008;13.666;2023-08-17T11:25:49;7.47;;;5.47;;
59024;SDS011;44806;48.008;13.666;2023-08-17T11:28:18;6.72;;;5.00;;
59024;SDS011;44806;48.008;13.666;2023-08-17T11:30:46;6.57;;;4.95;;
59024;SDS011;44806;48.008;13.666;2023-08-17T11:33:22;6.88;;;5.00;;
59024;SDS011;44806;48.008;13.666;2023-08-17T11:35:51;7.55;;;5.15;;
59024;SDS011;44806;48.008;13.666;2023-08-17T11:38:20;7.22;;;4.70;;
59024;SDS011;44806;48.008;13.666;2023-08-17T11:40:47;8.20;;;5.20;;
59024;SDS011;44806;48.008;13.666;2023-08-17T11:43:14;6.53;;;4.90;;
59024;SDS011;44806;48.008;13.666;2023-08-17T11:45:41;6.70;;;4.70;;
59024;SDS011;44806;48.008;13.666;2023-08-17T11:48:08;7.82;;;4.82;;
59024;SDS011;44806;48.008;13.666;2023-08-17T11:50:35;7.47;;;4.53;;
59024;SDS011;44806;48.008;13.666;2023-08-17T11:53:05;7.40;;;4.38;;
59024;SDS011;44806;48.008;13.666;2023-08-17T11:55:32;6.15;;;4.50;;
59024;SDS011;44806;48.008;13.666;2023-08-17T11:57:59;8.45;;;4.38;;
59024;SDS011;44806;48.008;13.666;2023-08-17T12:00:28;8.20;;;4.63;;
59024;SDS011;44806;48.008;13.666;2023-08-17T12:03:01;6.57;;;4.60;;
59024;SDS011;44806;48.008;13.666;2023-08-17T12:05:30;8.05;;;4.95;;
59024;SDS011;44806;48.008;13.666;2023-08-17T12:07:58;6.50;;;4.68;;
59024;SDS011;44806;48.008;13.666;2023-08-17T12:10:28;5.93;;;4.68;;
59024;SDS011;44806;48.008;13.666;2023-08-17T12:12:57;7.05;;;4.30;;
59024;SDS011;44806;48.008;13.666;2023-08-17T12:15:29;7.18;;;4.40;;
59024;SDS011;44806;48.008;13.666;2023-08-17T12:17:58;6.80;;;4.20;;
59024;SDS011;44806;48.008;13.666;2023-08-17T12:20:26;9.02;;;4.40;;
59024;SDS011;44806;48.008;13.666;2023-08-17T12:29:46;6.90;;;4.57;;
59024;SDS011;44806;48.008;13.666;2023-08-17T12:32:14;7.93;;;4.72;;
59024;SDS011;44806;48.008;13.666;2023-08-17T12:34:42;6.85;;;4.50;;
59024;SDS011;44806;48.008;13.666;2023-08-17T12:37:09;8.98;;;4.72;;
59024;SDS011;44806;48.008;13.666;2023-08-17T12:39:36;7.35;;;4.18;;
59024;SDS011;44806;48.008;13.666;2023-08-17T12:42:03;6.85;;;4.68;;
59024;SDS011;44806;48.008;13.666;2023-08-17T12:44:31;7.53;;;4.80;;
59024;SDS011;44806;48.008;13.666;2023-08-17T12:46:59;7.82;;;4.53;;
59024;SDS011;44806;48.008;13.666;2023-08-17T12:49:26;7.72;;;4.40;;
59024;SDS011;44806;48.008;13.666;2023-08-17T12:51:53;8.40;;;4.85;;
59024;SDS011;44806;48.008;13.666;2023-08-17T12:54:20;7.32;;;4.50;;
59024;SDS011;44806;48.008;13.666;2023-08-17T12:56:47;6.60;;;4.32;;
59024;SDS011;44806;48.008;13.666;2023-08-17T12:59:14;7.13;;;4.20;;
59024;SDS011;44806;48.008;13.666;2023-08-17T13:01:41;7.43;;;4.32;;
59024;SDS011;44806;48.008;13.666;2023-08-17T13:04:09;6.35;;;4.20;;
59024;SDS011;44806;48.008;13.666;2023-08-17T13:06:36;6.82;;;3.97;;
59024;SDS011;44806;48.008;13.666;2023-08-17T13:09:04;6.78;;;3.88;;
59024;SDS011;44806;48.008;13.666;2023-08-17T13:11:31;6.60;;;4.05;;
59024;SDS011;44806;48.008;13.666;2023-08-17T13:13:58;6.95;;;4.30;;
59024;SDS011;44806;48.008;13.666;2023-08-17T13:16:25;7.40;;;4.50;;
59024;SDS011;44806;48.008;13.666;2023-08-17T13:18:52;6.30;;;4.43;;
59024;SDS011;44806;48.008;13.666;2023-08-17T13:21:21;6.55;;;3.92;;
59024;SDS011;44806;48.008;13.666;2023-08-17T13:23:47;7.57;;;3.97;;
59024;SDS011;44806;48.008;13.666;2023-08-17T13:26:14;7.35;;;4.25;;
59024;SDS011;44806;48.008;13.666;2023-08-17T13:28:41;10.70;;;4.47;;
59024;SDS011;44806;48.008;13.666;2023-08-17T13:31:08;6.60;;;3.80;;
59024;SDS011;44806;48.008;13.666;2023-08-17T13:33:35;5.30;;;3.80;;
59024;SDS011;44806;48.008;13.666;2023-08-17T13:36:02;8.23;;;4.22;;
59024;SDS011;44806;48.008;13.666;2023-08-17T13:38:30;49.67;;;6.75;;
59024;SDS011;44806;48.008;13.666;2023-08-17T13:40:57;7.70;;;4.15;;
59024;SDS011;44806;48.008;13.666;2023-08-17T13:43:24;11.30;;;4.60;;
59024;SDS011;44806;48.008;13.666;2023-08-17T13:45:51;23.20;;;4.88;;
59024;SDS011;44806;48.008;13.666;2023-08-17T13:48:18;13.07;;;4.60;;
59024;SDS011;44806;48.008;13.666;2023-08-17T13:50:45;6.20;;;3.95;;
59024;SDS011;44806;48.008;13.666;2023-08-17T13:53:12;12.95;;;4.30;;
59024;SDS011;44806;48.008;13.666;2023-08-17T13:55:40;5.40;;;3.90;;
59024;SDS011;44806;48.008;13.666;2023-08-17T13:58:07;14.43;;;4.60;;
59024;SDS011;44806;48.008;13.666;2023-08-17T14:00:35;10.60;;;3.75;;
59024;SDS011;44806;48.008;13.666;2023-08-17T14:03:02;9.93;;;4.20;;
59024;SDS011;44806;48.008;13.666;2023-08-17T14:05:31;7.03;;;3.90;;
59024;SDS011;44806;48.008;13.666;2023-08-17T14:07:58;6.10;;;3.70;;
59024;SDS011;44806;48.008;13.666;2023-08-17T14:10:25;7.75;;;3.83;;
59024;SDS011;44806;48.008;13.666;2023-08-17T14:12:53;9.70;;;4.50;;
59024;SDS011;44806;48.008;13.666;2023-08-17T14:15:20;7.55;;;4.28;;
59024;SDS011;44806;48.008;13.666;2023-08-17T14:17:47;6.75;;;4.25;;
59024;SDS011;44806;48.008;13.666;2023-08-17T14:20:14;10.00;;;4.53;;
59024;SDS011;44806;48.008;13.666;2023-08-17T14:22:41;8.82;;;4.32;;
59024;SDS011;44806;48.008;13.666;2023-08-17T14:25:08;8.70;;;4.10;;
59024;SDS011;44806;48.008;13.666;2023-08-17T14:27:35;7.57;;;4.35;;
59024;SDS011;44806;48.008;13.666;2023-08-17T14:30:04;7.25;;;3.90;;
59024;SDS011;44806;48.008;13.666;2023-08-17T14:32:31;7.50;;;3.90;;
59024;SDS011;44806;48.008;13.666;2023-08-17T14:34:58;9.70;;;4.38;;
59024;SDS011;44806;48.008;13.666;2023-08-17T14:37:25;7.10;;;4.13;;
59024;SDS011;44806;48.008;13.666;2023-08-17T14:39:52;6.95;;;4.10;;
59024;SDS011;44806;48.008;13.666;2023-08-17T14:42:19;11.38;;;4.20;;
59024;SDS011;44806;48.008;13.666;2023-08-17T14:44:46;10.27;;;4.15;;